sensor_id;sensor_type;location;lat;lon;timestamp;temperature;humidity
58582;DHT22;44361;51.476;5.700;2023-08-08T00:00:14;12.80;99.90
58582;DHT22;44361;51.476;5.700;2023-08-08T00:02:39;12.80;99.90
58582;DHT22;44361;51.476;5.700;2023-08-08T00:05:05;12.90;99.90
58582;DHT22;44361;51.476;5.700;2023-08-08T00:07:31;12.90;99.90
58582;DHT22;44361;51.476;5.700;2023-08-08T00:09:56;12.90;99.90
58582;DHT22;44361;51.476;5.700;2023-08-08T00:12:22;12.90;99.90
58582;DHT22;44361;51.476;5.700;2023-08-08T00:14:48;12.90;99.90
58582;DHT22;44361;51.476;5.700;2023-08-08T00:17:13;13.00;99.90
58582;DHT22;44361;51.476;5.700;2023-08-08T00:19:39;13.00;99.90
58582;DHT22;44361;51.476;5.700;2023-08-08T00:22:05;13.00;99.90
58582;DHT22;44361;51.476;5.700;2023-08-08T00:24:31;13.00;99.90
58582;DHT22;44361;51.476;5.700;2023-08-08T00:26:56;13.20;99.90
58582;DHT22;44361;51.476;5.700;2023-08-08T00:29:22;13.30;99.90
58582;DHT22;44361;51.476;5.700;2023-08-08T00:31:47;13.40;99.90
58582;DHT22;44361;51.476;5.700;2023-08-08T00:34:13;13.50;99.90
58582;DHT22;44361;51.476;5.700;2023-08-08T00:36:38;13.60;99.90
58582;DHT22;44361;51.476;5.700;2023-08-08T00:39:04;13.60;99.90
58582;DHT22;44361;51.476;5.700;2023-08-08T00:41:29;13.60;99.90
58582;DHT22;44361;51.476;5.700;2023-08-08T00:43:55;13.60;99.90
58582;DHT22;44361;51.476;5.700;2023-08-08T00:46:21;13.60;99.90
58582;DHT22;44361;51.476;5.700;2023-08-08T00:48:47;13.70;99.90
58582;DHT22;44361;51.476;5.700;2023-08-08T00:51:13;13.80;99.90
58582;DHT22;44361;51.476;5.700;2023-08-08T00:53:39;13.80;99.90
58582;DHT22;44361;51.476;5.700;2023-08-08T00:56:05;13.80;99.90
58582;DHT22;44361;51.476;5.700;2023-08-08T00:58:31;13.80;99.90
58582;DHT22;44361;51.476;5.700;2023-08-08T01:00:56;13.70;99.90
58582;DHT22;44361;51.476;5.700;2023-08-08T01:03:25;13.70;99.90
58582;DHT22;44361;51.476;5.700;2023-08-08T01:06:01;13.80;99.90
58582;DHT22;44361;51.476;5.700;2023-08-08T01:08:35;13.70;99.90
58582;DHT22;44361;51.476;5.700;2023-08-08T01:11:04;13.70;99.90
58582;DHT22;44361;51.476;5.700;2023-08-08T01:13:31;13.80;99.90
58582;DHT22;44361;51.476;5.700;2023-08-08T01:15:58;13.80;99.90
58582;DHT22;44361;51.476;5.700;2023-08-08T01:18:24;13.90;99.90
58582;DHT22;44361;51.476;5.700;2023-08-08T01:20:50;14.00;99.90
58582;DHT22;44361;51.476;5.700;2023-08-08T01:23:41;13.90;99.90
58582;DHT22;44361;51.476;5.700;2023-08-08T01:26:08;13.90;99.90
58582;DHT22;44361;51.476;5.700;2023-08-08T01:28:34;14.00;99.90
58582;DHT22;44361;51.476;5.700;2023-08-08T01:30:59;14.10;99.90
58582;DHT22;44361;51.476;5.700;2023-08-08T01:33:25;14.10;99.90
58582;DHT22;44361;51.476;5.700;2023-08-08T01:35:54;14.10;99.90
58582;DHT22;44361;51.476;5.700;2023-08-08T01:38:32;14.20;99.90
58582;DHT22;44361;51.476;5.700;2023-08-08T01:40:59;14.10;99.90
58582;DHT22;44361;51.476;5.700;2023-08-08T01:43:25;14.20;99.90
58582;DHT22;44361;51.476;5.700;2023-08-08T01:45:52;14.20;99.90
58582;DHT22;44361;51.476;5.700;2023-08-08T01:48:18;14.20;99.90
58582;DHT22;44361;51.476;5.700;2023-08-08T01:50:43;14.10;99.90
58582;DHT22;44361;51.476;5.700;2023-08-08T01:53:09;14.20;99.90
58582;DHT22;44361;51.476;5.700;2023-08-08T01:55:35;14.10;99.90
58582;DHT22;44361;51.476;5.700;2023-08-08T01:58:01;14.10;99.90
58582;DHT22;44361;51.476;5.700;2023-08-08T02:00:26;14.20;99.90
58582;DHT22;44361;51.476;5.700;2023-08-08T02:02:52;14.10;99.90
58582;DHT22;44361;51.476;5.700;2023-08-08T02:05:17;14.20;99.90
58582;DHT22;44361;51.476;5.700;2023-08-08T02:07:43;14.20;99.90
58582;DHT22;44361;51.476;5.700;2023-08-08T02:10:08;14.10;99.90
58582;DHT22;44361;51.476;5.700;2023-08-08T02:12:34;14.10;99.90
58582;DHT22;44361;51.476;5.700;2023-08-08T02:14:59;14.10;99.90
58582;DHT22;44361;51.476;5.700;2023-08-08T02:17:25;14.00;99.90
58582;DHT22;44361;51.476;5.700;2023-08-08T02:19:52;14.00;99.90
58582;DHT22;44361;51.476;5.700;2023-08-08T02:22:17;14.00;99.90
58582;DHT22;44361;51.476;5.700;2023-08-08T02:24:43;13.90;99.90
58582;DHT22;44361;51.476;5.700;2023-08-08T02:27:09;13.90;99.90
58582;DHT22;44361;51.476;5.700;2023-08-08T02:29:35;13.80;99.90
58582;DHT22;44361;51.476;5.700;2023-08-08T02:32:00;13.70;99.90
58582;DHT22;44361;51.476;5.700;2023-08-08T02:34:26;13.60;99.90
58582;DHT22;44361;51.476;5.700;2023-08-08T02:36:51;13.50;99.90
58582;DHT22;44361;51.476;5.700;2023-08-08T02:39:17;13.40;99.90
58582;DHT22;44361;51.476;5.700;2023-08-08T02:41:43;13.40;99.90
58582;DHT22;44361;51.476;5.700;2023-08-08T02:44:08;13.30;99.90
58582;DHT22;44361;51.476;5.700;2023-08-08T02:46:34;13.30;99.90
58582;DHT22;44361;51.476;5.700;2023-08-08T02:48:59;13.40;99.90
58582;DHT22;44361;51.476;5.700;2023-08-08T02:51:25;13.40;99.90
58582;DHT22;44361;51.476;5.700;2023-08-08T02:53:50;13.40;99.90
58582;DHT22;44361;51.476;5.700;2023-08-08T02:56:16;13.40;99.90
58582;DHT22;44361;51.476;5.700;2023-08-08T02:58:41;13.40;99.90
58582;DHT22;44361;51.476;5.700;2023-08-08T03:01:07;13.50;99.90
58582;DHT22;44361;51.476;5.700;2023-08-08T03:03:33;13.50;99.90
58582;DHT22;44361;51.476;5.700;2023-08-08T03:05:58;13.50;99.90
58582;DHT22;44361;51.476;5.700;2023-08-08T03:08:24;13.50;99.90
58582;DHT22;44361;51.476;5.700;2023-08-08T03:10:49;13.50;99.90
58582;DHT22;44361;51.476;5.700;2023-08-08T03:13:15;13.50;99.90
58582;DHT22;44361;51.476;5.700;2023-08-08T03:15:40;13.50;99.90
58582;DHT22;44361;51.476;5.700;2023-08-08T03:18:06;13.50;99.90
58582;DHT22;44361;51.476;5.700;2023-08-08T03:20:31;13.50;99.90
58582;DHT22;44361;51.476;5.700;2023-08-08T03:22:57;13.50;99.90
58582;DHT22;44361;51.476;5.700;2023-08-08T03:25:22;13.50;99.90
58582;DHT22;44361;51.476;5.700;2023-08-08T03:27:48;13.50;99.90
58582;DHT22;44361;51.476;5.700;2023-08-08T03:30:14;13.50;99.90
58582;DHT22;44361;51.476;5.700;2023-08-08T03:32:40;13.50;99.90
58582;DHT22;44361;51.476;5.700;2023-08-08T03:35:05;13.50;99.90
58582;DHT22;44361;51.476;5.700;2023-08-08T03:37:31;13.50;99.90
58582;DHT22;44361;51.476;5.700;2023-08-08T03:39:57;13.50;99.90
58582;DHT22;44361;51.476;5.700;2023-08-08T03:42:23;13.50;99.90
58582;DHT22;44361;51.476;5.700;2023-08-08T03:44:48;13.50;99.90
58582;DHT22;44361;51.476;5.700;2023-08-08T03:47:14;13.50;99.90
58582;DHT22;44361;51.476;5.700;2023-08-08T03:49:39;13.60;99.90
58582;DHT22;44361;51.476;5.700;2023-08-08T03:52:05;13.60;99.90
58582;DHT22;44361;51.476;5.700;2023-08-08T03:54:31;13.60;99.90
58582;DHT22;44361;51.476;5.700;2023-08-08T03:56:57;13.60;99.90
58582;DHT22;44361;51.476;5.700;2023-08-08T03:59:22;13.60;99.90
58582;DHT22;44361;51.476;5.700;2023-08-08T04:01:48;13.60;99.90
58582;DHT22;44361;51.476;5.700;2023-08-08T04:04:14;13.60;99.90
58582;DHT22;44361;51.476;5.700;2023-08-08T04:06:39;13.60;99.90
58582;DHT22;44361;51.476;5.700;2023-08-08T04:09:05;13.60;99.90
58582;DHT22;44361;51.476;5.700;2023-08-08T04:11:30;13.60;99.90
58582;DHT22;44361;51.476;5.700;2023-08-08T04:13:56;13.50;99.90
58582;DHT22;44361;51.476;5.700;2023-08-08T04:16:22;13.40;99.90
58582;DHT22;44361;51.476;5.700;2023-08-08T04:18:47;13.30;99.90
58582;DHT22;44361;51.476;5.700;2023-08-08T04:21:12;13.30;99.90
58582;DHT22;44361;51.476;5.700;2023-08-08T04:23:38;13.20;99.90
58582;DHT22;44361;51.476;5.700;2023-08-08T04:26:04;13.20;99.90
58582;DHT22;44361;51.476;5.700;2023-08-08T04:28:29;13.10;99.90
58582;DHT22;44361;51.476;5.700;2023-08-08T04:30:55;13.10;99.90
58582;DHT22;44361;51.476;5.700;2023-08-08T04:33:20;13.00;99.90
58582;DHT22;44361;51.476;5.700;2023-08-08T04:35:46;13.00;99.90
58582;DHT22;44361;51.476;5.700;2023-08-08T04:38:14;13.00;99.90
58582;DHT22;44361;51.476;5.700;2023-08-08T04:40:40;13.00;99.90
58582;DHT22;44361;51.476;5.700;2023-08-08T04:43:05;13.00;99.90
58582;DHT22;44361;51.476;5.700;2023-08-08T04:45:31;13.00;99.90
58582;DHT22;44361;51.476;5.700;2023-08-08T04:47:56;13.00;99.90
58582;DHT22;44361;51.476;5.700;2023-08-08T04:50:23;12.90;99.90
58582;DHT22;44361;51.476;5.700;2023-08-08T04:52:48;13.00;99.90
58582;DHT22;44361;51.476;5.700;2023-08-08T04:55:14;13.00;99.90
58582;DHT22;44361;51.476;5.700;2023-08-08T04:57:39;13.10;99.90
58582;DHT22;44361;51.476;5.700;2023-08-08T05:00:05;13.10;99.90
58582;DHT22;44361;51.476;5.700;2023-08-08T05:02:34;13.10;99.90
58582;DHT22;44361;51.476;5.700;2023-08-08T05:04:59;13.10;99.90
58582;DHT22;44361;51.476;5.700;2023-08-08T05:07:26;13.10;99.90
58582;DHT22;44361;51.476;5.700;2023-08-08T05:09:51;13.10;99.90
58582;DHT22;44361;51.476;5.700;2023-08-08T05:12:17;13.20;99.90
58582;DHT22;44361;51.476;5.700;2023-08-08T05:14:43;13.20;99.90
58582;DHT22;44361;51.476;5.700;2023-08-08T05:17:08;13.20;99.90
58582;DHT22;44361;51.476;5.700;2023-08-08T05:19:34;13.40;99.90
58582;DHT22;44361;51.476;5.700;2023-08-08T05:21:59;13.40;99.90
58582;DHT22;44361;51.476;5.700;2023-08-08T05:24:26;13.40;99.90
58582;DHT22;44361;51.476;5.700;2023-08-08T05:26:51;13.40;99.90
58582;DHT22;44361;51.476;5.700;2023-08-08T05:29:18;13.40;99.90
58582;DHT22;44361;51.476;5.700;2023-08-08T05:31:44;13.50;99.90
58582;DHT22;44361;51.476;5.700;2023-08-08T05:34:10;13.50;99.90
58582;DHT22;44361;51.476;5.700;2023-08-08T05:36:35;13.70;99.90
58582;DHT22;44361;51.476;5.700;2023-08-08T05:39:00;13.90;99.90
58582;DHT22;44361;51.476;5.700;2023-08-08T05:41:26;14.30;99.90
58582;DHT22;44361;51.476;5.700;2023-08-08T05:43:51;14.40;99.90
58582;DHT22;44361;51.476;5.700;2023-08-08T05:46:17;14.50;99.90
58582;DHT22;44361;51.476;5.700;2023-08-08T05:48:42;14.50;99.90
58582;DHT22;44361;51.476;5.700;2023-08-08T05:51:08;14.80;99.90
58582;DHT22;44361;51.476;5.700;2023-08-08T05:53:33;15.20;99.90
58582;DHT22;44361;51.476;5.700;2023-08-08T05:55:59;15.60;99.90
58582;DHT22;44361;51.476;5.700;2023-08-08T05:58:24;15.90;99.90
58582;DHT22;44361;51.476;5.700;2023-08-08T06:00:50;16.10;99.90
58582;DHT22;44361;51.476;5.700;2023-08-08T06:03:16;16.30;99.90
58582;DHT22;44361;51.476;5.700;2023-08-08T06:05:41;16.40;99.90
58582;DHT22;44361;51.476;5.700;2023-08-08T06:08:07;16.50;99.90
58582;DHT22;44361;51.476;5.700;2023-08-08T06:10:37;16.90;99.90
58582;DHT22;44361;51.476;5.700;2023-08-08T06:13:02;17.10;99.90
58582;DHT22;44361;51.476;5.700;2023-08-08T06:15:28;17.00;99.90
58582;DHT22;44361;51.476;5.700;2023-08-08T06:17:53;16.80;99.90
58582;DHT22;44361;51.476;5.700;2023-08-08T06:20:19;16.70;99.90
58582;DHT22;44361;51.476;5.700;2023-08-08T06:22:44;16.90;99.90
58582;DHT22;44361;51.476;5.700;2023-08-08T06:25:10;16.90;99.90
58582;DHT22;44361;51.476;5.700;2023-08-08T06:27:36;17.00;99.90
58582;DHT22;44361;51.476;5.700;2023-08-08T06:30:02;17.10;99.90
58582;DHT22;44361;51.476;5.700;2023-08-08T06:32:28;17.30;99.90
58582;DHT22;44361;51.476;5.700;2023-08-08T06:34:53;17.50;99.90
58582;DHT22;44361;51.476;5.700;2023-08-08T06:37:20;17.70;99.90
58582;DHT22;44361;51.476;5.700;2023-08-08T06:39:45;17.60;99.90
58582;DHT22;44361;51.476;5.700;2023-08-08T06:42:11;17.70;99.90
58582;DHT22;44361;51.476;5.700;2023-08-08T06:44:42;17.80;99.90
58582;DHT22;44361;51.476;5.700;2023-08-08T06:47:08;17.60;99.90
58582;DHT22;44361;51.476;5.700;2023-08-08T06:49:34;17.70;99.90
58582;DHT22;44361;51.476;5.700;2023-08-08T06:51:59;17.40;99.90
58582;DHT22;44361;51.476;5.700;2023-08-08T06:54:25;17.00;99.90
58582;DHT22;44361;51.476;5.700;2023-08-08T06:56:53;17.00;99.90
58582;DHT22;44361;51.476;5.700;2023-08-08T06:59:19;17.20;99.90
58582;DHT22;44361;51.476;5.700;2023-08-08T07:01:44;17.60;99.90
58582;DHT22;44361;51.476;5.700;2023-08-08T07:04:10;17.60;99.90
58582;DHT22;44361;51.476;5.700;2023-08-08T07:06:35;17.60;99.90
58582;DHT22;44361;51.476;5.700;2023-08-08T07:09:01;17.40;99.90
58582;DHT22;44361;51.476;5.700;2023-08-08T07:11:27;17.50;99.90
58582;DHT22;44361;51.476;5.700;2023-08-08T07:13:53;17.70;99.90
58582;DHT22;44361;51.476;5.700;2023-08-08T07:16:19;17.70;99.90
58582;DHT22;44361;51.476;5.700;2023-08-08T07:18:44;17.60;99.90
58582;DHT22;44361;51.476;5.700;2023-08-08T07:21:10;17.50;99.90
58582;DHT22;44361;51.476;5.700;2023-08-08T07:23:35;17.50;99.90
58582;DHT22;44361;51.476;5.700;2023-08-08T07:26:01;17.50;99.90
58582;DHT22;44361;51.476;5.700;2023-08-08T07:28:26;17.30;99.90
58582;DHT22;44361;51.476;5.700;2023-08-08T07:30:51;17.00;99.90
58582;DHT22;44361;51.476;5.700;2023-08-08T07:33:17;16.90;99.90
58582;DHT22;44361;51.476;5.700;2023-08-08T07:35:43;17.20;99.90
58582;DHT22;44361;51.476;5.700;2023-08-08T07:38:08;17.40;99.90
58582;DHT22;44361;51.476;5.700;2023-08-08T07:40:34;17.70;99.90
58582;DHT22;44361;51.476;5.700;2023-08-08T07:42:59;17.70;99.90
58582;DHT22;44361;51.476;5.700;2023-08-08T07:45:25;17.80;99.90
58582;DHT22;44361;51.476;5.700;2023-08-08T07:47:50;17.90;99.90
58582;DHT22;44361;51.476;5.700;2023-08-08T07:50:16;17.90;99.90
58582;DHT22;44361;51.476;5.700;2023-08-08T07:52:42;17.90;99.90
58582;DHT22;44361;51.476;5.700;2023-08-08T07:55:08;18.00;99.90
58582;DHT22;44361;51.476;5.700;2023-08-08T07:57:33;17.90;99.90
58582;DHT22;44361;51.476;5.700;2023-08-08T08:00:00;18.40;99.90
58582;DHT22;44361;51.476;5.700;2023-08-08T08:02:32;19.10;99.90
58582;DHT22;44361;51.476;5.700;2023-08-08T08:04:58;19.20;99.90
58582;DHT22;44361;51.476;5.700;2023-08-08T08:07:23;19.10;99.90
58582;DHT22;44361;51.476;5.700;2023-08-08T08:09:49;19.30;99.90
58582;DHT22;44361;51.476;5.700;2023-08-08T08:12:14;19.40;99.90
58582;DHT22;44361;51.476;5.700;2023-08-08T08:14:40;19.20;99.90
58582;DHT22;44361;51.476;5.700;2023-08-08T08:17:05;18.90;99.90
58582;DHT22;44361;51.476;5.700;2023-08-08T08:19:31;18.80;99.90
58582;DHT22;44361;51.476;5.700;2023-08-08T08:21:56;18.80;99.90
58582;DHT22;44361;51.476;5.700;2023-08-08T08:24:22;18.80;99.90
58582;DHT22;44361;51.476;5.700;2023-08-08T08:26:48;18.90;99.90
58582;DHT22;44361;51.476;5.700;2023-08-08T08:29:14;19.10;99.90
58582;DHT22;44361;51.476;5.700;2023-08-08T08:31:39;19.10;99.90
58582;DHT22;44361;51.476;5.700;2023-08-08T08:34:05;18.90;99.90
58582;DHT22;44361;51.476;5.700;2023-08-08T08:36:30;18.80;99.90
58582;DHT22;44361;51.476;5.700;2023-08-08T08:38:56;18.90;99.90
58582;DHT22;44361;51.476;5.700;2023-08-08T08:41:26;18.70;99.90
58582;DHT22;44361;51.476;5.700;2023-08-08T08:43:53;18.70;99.90
58582;DHT22;44361;51.476;5.700;2023-08-08T08:46:21;18.90;99.90
58582;DHT22;44361;51.476;5.700;2023-08-08T08:48:49;19.50;99.90
58582;DHT22;44361;51.476;5.700;2023-08-08T08:51:15;19.50;99.90
58582;DHT22;44361;51.476;5.700;2023-08-08T08:53:42;19.60;99.90
58582;DHT22;44361;51.476;5.700;2023-08-08T08:56:08;19.40;99.90
58582;DHT22;44361;51.476;5.700;2023-08-08T08:58:34;19.20;99.90
58582;DHT22;44361;51.476;5.700;2023-08-08T09:01:00;19.10;99.90
58582;DHT22;44361;51.476;5.700;2023-08-08T09:03:26;19.00;99.90
58582;DHT22;44361;51.476;5.700;2023-08-08T09:05:52;18.60;99.90
58582;DHT22;44361;51.476;5.700;2023-08-08T09:08:20;18.70;99.90
58582;DHT22;44361;51.476;5.700;2023-08-08T09:10:45;18.80;99.90
58582;DHT22;44361;51.476;5.700;2023-08-08T09:13:11;19.00;99.90
58582;DHT22;44361;51.476;5.700;2023-08-08T09:15:36;19.10;99.90
58582;DHT22;44361;51.476;5.700;2023-08-08T09:18:02;19.20;99.90
58582;DHT22;44361;51.476;5.700;2023-08-08T09:20:28;19.00;99.90
58582;DHT22;44361;51.476;5.700;2023-08-08T09:22:54;19.00;99.90
58582;DHT22;44361;51.476;5.700;2023-08-08T09:25:20;19.50;99.90
58582;DHT22;44361;51.476;5.700;2023-08-08T09:27:46;19.30;99.90
58582;DHT22;44361;51.476;5.700;2023-08-08T09:30:12;19.00;99.90
58582;DHT22;44361;51.476;5.700;2023-08-08T09:32:38;18.80;99.90
58582;DHT22;44361;51.476;5.700;2023-08-08T09:35:03;18.60;99.90
58582;DHT22;44361;51.476;5.700;2023-08-08T09:37:30;18.80;99.90
58582;DHT22;44361;51.476;5.700;2023-08-08T09:40:01;18.80;99.90
58582;DHT22;44361;51.476;5.700;2023-08-08T09:42:29;19.00;99.90
58582;DHT22;44361;51.476;5.700;2023-08-08T09:44:56;19.10;99.90
58582;DHT22;44361;51.476;5.700;2023-08-08T09:47:22;19.30;99.90
58582;DHT22;44361;51.476;5.700;2023-08-08T09:49:48;19.40;99.90
58582;DHT22;44361;51.476;5.700;2023-08-08T09:52:14;19.10;99.90
58582;DHT22;44361;51.476;5.700;2023-08-08T09:54:41;19.00;99.90
58582;DHT22;44361;51.476;5.700;2023-08-08T09:57:07;19.10;99.90
58582;DHT22;44361;51.476;5.700;2023-08-08T09:59:34;19.30;99.90
58582;DHT22;44361;51.476;5.700;2023-08-08T10:02:01;19.60;99.90
58582;DHT22;44361;51.476;5.700;2023-08-08T10:04:27;19.60;99.90
58582;DHT22;44361;51.476;5.700;2023-08-08T10:06:52;19.90;99.90
58582;DHT22;44361;51.476;5.700;2023-08-08T10:09:18;20.00;99.90
58582;DHT22;44361;51.476;5.700;2023-08-08T10:11:44;19.60;99.90
58582;DHT22;44361;51.476;5.700;2023-08-08T10:14:12;19.50;99.90
58582;DHT22;44361;51.476;5.700;2023-08-08T10:16:42;19.70;99.90
58582;DHT22;44361;51.476;5.700;2023-08-08T10:19:09;19.90;99.90
58582;DHT22;44361;51.476;5.700;2023-08-08T10:21:37;20.00;99.90
58582;DHT22;44361;51.476;5.700;2023-08-08T10:24:07;20.10;99.90
58582;DHT22;44361;51.476;5.700;2023-08-08T10:26:33;20.00;99.80
58582;DHT22;44361;51.476;5.700;2023-08-08T10:29:00;20.30;99.90
58582;DHT22;44361;51.476;5.700;2023-08-08T10:31:26;20.60;99.00
58582;DHT22;44361;51.476;5.700;2023-08-08T10:34:03;21.10;99.30
58582;DHT22;44361;51.476;5.700;2023-08-08T10:36:49;20.90;98.00
58582;DHT22;44361;51.476;5.700;2023-08-08T10:39:17;20.80;97.60
58582;DHT22;44361;51.476;5.700;2023-08-08T10:41:48;20.90;98.70
58582;DHT22;44361;51.476;5.700;2023-08-08T10:44:22;21.00;98.40
58582;DHT22;44361;51.476;5.700;2023-08-08T10:46:49;20.90;98.20
58582;DHT22;44361;51.476;5.700;2023-08-08T10:49:16;20.90;99.60
58582;DHT22;44361;51.476;5.700;2023-08-08T10:51:43;20.80;97.30
58582;DHT22;44361;51.476;5.700;2023-08-08T10:56:51;20.20;97.50
58582;DHT22;44361;51.476;5.700;2023-08-08T10:59:54;20.10;98.50
58582;DHT22;44361;51.476;5.700;2023-08-08T11:02:13;20.60;99.60
58582;DHT22;44361;51.476;5.700;2023-08-08T11:04:40;20.90;98.90
58582;DHT22;44361;51.476;5.700;2023-08-08T11:07:06;20.60;97.30
58582;DHT22;44361;51.476;5.700;2023-08-08T11:09:32;20.00;97.90
58582;DHT22;44361;51.476;5.700;2023-08-08T11:11:58;19.60;98.20
58582;DHT22;44361;51.476;5.700;2023-08-08T11:14:23;19.30;98.50
58582;DHT22;44361;51.476;5.700;2023-08-08T11:16:50;19.10;99.90
58582;DHT22;44361;51.476;5.700;2023-08-08T11:19:16;18.70;99.70
58582;DHT22;44361;51.476;5.700;2023-08-08T11:21:43;18.50;99.90
58582;DHT22;44361;51.476;5.700;2023-08-08T11:24:10;18.60;99.90
58582;DHT22;44361;51.476;5.700;2023-08-08T11:26:37;18.60;99.90
58582;DHT22;44361;51.476;5.700;2023-08-08T11:29:04;18.80;99.90
58582;DHT22;44361;51.476;5.700;2023-08-08T11:31:36;19.30;99.90
58582;DHT22;44361;51.476;5.700;2023-08-08T11:34:03;19.70;99.90
58582;DHT22;44361;51.476;5.700;2023-08-08T11:36:31;19.70;99.30
58582;DHT22;44361;51.476;5.700;2023-08-08T11:39:00;19.70;99.90
58582;DHT22;44361;51.476;5.700;2023-08-08T11:41:28;19.60;98.90
58582;DHT22;44361;51.476;5.700;2023-08-08T11:43:54;19.60;98.90
58582;DHT22;44361;51.476;5.700;2023-08-08T11:46:23;20.10;98.70
58582;DHT22;44361;51.476;5.700;2023-08-08T11:48:49;20.10;98.50
58582;DHT22;44361;51.476;5.700;2023-08-08T11:51:16;20.10;98.20
58582;DHT22;44361;51.476;5.700;2023-08-08T11:53:52;20.30;99.30
58582;DHT22;44361;51.476;5.700;2023-08-08T11:56:21;21.10;98.70
58582;DHT22;44361;51.476;5.700;2023-08-08T11:58:50;21.60;98.00
58582;DHT22;44361;51.476;5.700;2023-08-08T12:01:16;21.80;96.10
58582;DHT22;44361;51.476;5.700;2023-08-08T12:03:46;21.60;96.00
58582;DHT22;44361;51.476;5.700;2023-08-08T12:06:15;21.50;96.50
58582;DHT22;44361;51.476;5.700;2023-08-08T12:08:45;21.70;96.70
58582;DHT22;44361;51.476;5.700;2023-08-08T12:11:12;21.80;96.50
58582;DHT22;44361;51.476;5.700;2023-08-08T12:13:40;22.00;95.60
58582;DHT22;44361;51.476;5.700;2023-08-08T12:16:11;22.10;96.40
58582;DHT22;44361;51.476;5.700;2023-08-08T12:18:37;21.50;95.40
58582;DHT22;44361;51.476;5.700;2023-08-08T12:21:08;21.10;95.80
58582;DHT22;44361;51.476;5.700;2023-08-08T12:23:35;20.70;96.20
58582;DHT22;44361;51.476;5.700;2023-08-08T12:26:04;20.70;96.20
58582;DHT22;44361;51.476;5.700;2023-08-08T12:28:34;21.10;97.30
58582;DHT22;44361;51.476;5.700;2023-08-08T12:31:00;21.10;94.70
58582;DHT22;44361;51.476;5.700;2023-08-08T12:33:25;20.70;95.40
58582;DHT22;44361;51.476;5.700;2023-08-08T12:35:51;20.50;95.90
58582;DHT22;44361;51.476;5.700;2023-08-08T12:38:16;20.20;95.80
58582;DHT22;44361;51.476;5.700;2023-08-08T12:40:42;19.90;97.40
58582;DHT22;44361;51.476;5.700;2023-08-08T12:43:10;20.00;95.80
58582;DHT22;44361;51.476;5.700;2023-08-08T12:45:39;20.10;95.10
58582;DHT22;44361;51.476;5.700;2023-08-08T12:48:05;20.80;95.70
58582;DHT22;44361;51.476;5.700;2023-08-08T12:50:30;21.30;95.20
58582;DHT22;44361;51.476;5.700;2023-08-08T12:52:56;21.20;94.10
58582;DHT22;44361;51.476;5.700;2023-08-08T12:55:21;21.20;92.90
58582;DHT22;44361;51.476;5.700;2023-08-08T12:57:47;21.20;89.40
58582;DHT22;44361;51.476;5.700;2023-08-08T13:00:14;21.00;88.20
58582;DHT22;44361;51.476;5.700;2023-08-08T13:02:39;21.20;90.00
58582;DHT22;44361;51.476;5.700;2023-08-08T13:05:05;21.10;89.10
58582;DHT22;44361;51.476;5.700;2023-08-08T13:07:32;20.90;91.50
58582;DHT22;44361;51.476;5.700;2023-08-08T13:09:58;21.00;90.90
58582;DHT22;44361;51.476;5.700;2023-08-08T13:12:23;21.30;91.20
58582;DHT22;44361;51.476;5.700;2023-08-08T13:14:49;21.40;90.60
58582;DHT22;44361;51.476;5.700;2023-08-08T13:17:14;21.40;91.50
58582;DHT22;44361;51.476;5.700;2023-08-08T13:19:40;21.10;91.20
58582;DHT22;44361;51.476;5.700;2023-08-08T13:22:06;20.90;90.60
58582;DHT22;44361;51.476;5.700;2023-08-08T13:24:32;20.40;90.90
58582;DHT22;44361;51.476;5.700;2023-08-08T13:26:57;20.30;91.00
58582;DHT22;44361;51.476;5.700;2023-08-08T13:29:23;20.40;90.70
58582;DHT22;44361;51.476;5.700;2023-08-08T13:31:48;20.40;90.60
58582;DHT22;44361;51.476;5.700;2023-08-08T13:34:14;20.30;89.70
58582;DHT22;44361;51.476;5.700;2023-08-08T13:36:39;20.10;90.50
58582;DHT22;44361;51.476;5.700;2023-08-08T13:39:05;20.10;89.80
58582;DHT22;44361;51.476;5.700;2023-08-08T13:41:31;19.70;89.20
58582;DHT22;44361;51.476;5.700;2023-08-08T13:43:56;19.60;90.10
58582;DHT22;44361;51.476;5.700;2023-08-08T13:46:22;20.10;91.30
58582;DHT22;44361;51.476;5.700;2023-08-08T13:48:48;20.50;89.80
58582;DHT22;44361;51.476;5.700;2023-08-08T13:51:13;20.90;88.90
58582;DHT22;44361;51.476;5.700;2023-08-08T13:53:39;21.00;90.00
58582;DHT22;44361;51.476;5.700;2023-08-08T13:56:05;21.40;91.00
58582;DHT22;44361;51.476;5.700;2023-08-08T13:58:31;21.20;88.40
58582;DHT22;44361;51.476;5.700;2023-08-08T14:00:56;21.20;85.50
58582;DHT22;44361;51.476;5.700;2023-08-08T14:03:23;21.30;87.50
58582;DHT22;44361;51.476;5.700;2023-08-08T14:05:50;21.70;89.60
58582;DHT22;44361;51.476;5.700;2023-08-08T14:08:16;21.80;83.60
58582;DHT22;44361;51.476;5.700;2023-08-08T14:10:42;21.60;82.40
58582;DHT22;44361;51.476;5.700;2023-08-08T14:13:07;21.70;84.90
58582;DHT22;44361;51.476;5.700;2023-08-08T14:15:33;21.80;83.50
58582;DHT22;44361;51.476;5.700;2023-08-08T14:17:59;22.20;86.50
58582;DHT22;44361;51.476;5.700;2023-08-08T14:20:25;22.50;85.00
58582;DHT22;44361;51.476;5.700;2023-08-08T14:22:50;22.00;81.20
58582;DHT22;44361;51.476;5.700;2023-08-08T14:25:16;21.70;82.00
58582;DHT22;44361;51.476;5.700;2023-08-08T14:27:41;21.60;83.30
58582;DHT22;44361;51.476;5.700;2023-08-08T14:30:07;21.40;84.90
58582;DHT22;44361;51.476;5.700;2023-08-08T14:32:33;21.60;86.80
58582;DHT22;44361;51.476;5.700;2023-08-08T14:34:59;21.50;86.60
58582;DHT22;44361;51.476;5.700;2023-08-08T14:37:25;21.50;83.80
58582;DHT22;44361;51.476;5.700;2023-08-08T14:39:51;21.40;85.50
58582;DHT22;44361;51.476;5.700;2023-08-08T14:42:16;21.30;86.70
58582;DHT22;44361;51.476;5.700;2023-08-08T14:44:42;21.10;85.90
58582;DHT22;44361;51.476;5.700;2023-08-08T14:47:07;20.70;85.90
58582;DHT22;44361;51.476;5.700;2023-08-08T14:49:33;20.40;87.80
58582;DHT22;44361;51.476;5.700;2023-08-08T14:51:58;20.60;88.80
58582;DHT22;44361;51.476;5.700;2023-08-08T14:54:24;21.10;86.90
58582;DHT22;44361;51.476;5.700;2023-08-08T14:56:49;21.40;87.70
58582;DHT22;44361;51.476;5.700;2023-08-08T14:59:16;21.20;88.30
58582;DHT22;44361;51.476;5.700;2023-08-08T15:01:41;21.00;85.60
58582;DHT22;44361;51.476;5.700;2023-08-08T15:04:07;20.80;88.00
58582;DHT22;44361;51.476;5.700;2023-08-08T15:06:33;21.20;87.90
58582;DHT22;44361;51.476;5.700;2023-08-08T15:08:58;21.50;90.10
58582;DHT22;44361;51.476;5.700;2023-08-08T15:11:24;21.70;90.00
58582;DHT22;44361;51.476;5.700;2023-08-08T15:13:49;22.00;90.20
58582;DHT22;44361;51.476;5.700;2023-08-08T15:16:15;21.90;89.00
58582;DHT22;44361;51.476;5.700;2023-08-08T15:18:41;21.80;88.00
58582;DHT22;44361;51.476;5.700;2023-08-08T15:21:06;21.70;88.30
58582;DHT22;44361;51.476;5.700;2023-08-08T15:23:32;21.50;88.80
58582;DHT22;44361;51.476;5.700;2023-08-08T15:26:01;21.30;90.00